Lewisdale, Maryland
Current Conditions -  °F | °C
As of 12:05 AM on Tuesday 21 Oct 2014 (Local Time) from KCGS Reporting Station
Overcast Overcast  
Wind Chill: 55°   Ceiling: 8500
Heat Index: 55°   Visibility: 10mi
Dew Point: 50°   Wind: 0mph
Humidity: 82%   Direction: NA
Pressure: 29.93"   Gusts: NA
Location:  38.9677°N, 76.9584°W
Report Text: KCGS 210405Z AUTO 00000KT 10SM OVC085 13/10 A2993 RMK AO1
Loading
Personal Weather Stations






























Interactive Weather Map
Tropical Storm Tracking
New forecast layout! Learn more

10-Day Weather Forecast

Advertisements
Track Severe Weather on mobile